sensor_id;sensor_type;location;lat;lon;timestamp;temperature;humidity
12634;DHT22;6382;48.614;8.880;2022-09-09T00:04:38;14.00;99.90
12634;DHT22;6382;48.614;8.880;2022-09-09T00:07:19;14.00;99.90
12634;DHT22;6382;48.614;8.880;2022-09-09T00:09:56;14.10;99.90
12634;DHT22;6382;48.614;8.880;2022-09-09T00:15:11;14.20;99.90
12634;DHT22;6382;48.614;8.880;2022-09-09T00:17:47;14.30;99.90
12634;DHT22;6382;48.614;8.880;2022-09-09T00:22:47;16.40;99.90
12634;DHT22;6382;48.614;8.880;2022-09-09T00:25:15;14.40;99.90
12634;DHT22;6382;48.614;8.880;2022-09-09T00:27:48;14.60;99.90
12634;DHT22;6382;48.614;8.880;2022-09-09T00:32:45;14.50;99.90
12634;DHT22;6382;48.614;8.880;2022-09-09T00:37:42;14.60;99.90
12634;DHT22;6382;48.614;8.880;2022-09-09T00:40:18;16.60;99.90
12634;DHT22;6382;48.614;8.880;2022-09-09T00:42:48;14.80;99.90
12634;DHT22;6382;48.614;8.880;2022-09-09T00:48:32;14.90;99.90
12634;DHT22;6382;48.614;8.880;2022-09-09T00:51:05;14.90;99.90
12634;DHT22;6382;48.614;8.880;2022-09-09T00:53:56;15.00;99.90
12634;DHT22;6382;48.614;8.880;2022-09-09T00:56:25;15.00;99.90
12634;DHT22;6382;48.614;8.880;2022-09-09T00:59:00;16.60;99.90
12634;DHT22;6382;48.614;8.880;2022-09-09T01:01:29;15.00;99.90
12634;DHT22;6382;48.614;8.880;2022-09-09T01:03:56;15.00;99.90
12634;DHT22;6382;48.614;8.880;2022-09-09T01:14:20;14.90;99.90
12634;DHT22;6382;48.614;8.880;2022-09-09T01:16:54;14.90;99.90
12634;DHT22;6382;48.614;8.880;2022-09-09T01:27:34;14.90;99.90
12634;DHT22;6382;48.614;8.880;2022-09-09T01:30:04;14.80;99.90
12634;DHT22;6382;48.614;8.880;2022-09-09T01:33:17;14.80;99.90
12634;DHT22;6382;48.614;8.880;2022-09-09T01:37:52;14.60;99.90
12634;DHT22;6382;48.614;8.880;2022-09-09T01:40:18;14.50;99.90
12634;DHT22;6382;48.614;8.880;2022-09-09T01:42:45;14.30;99.90
12634;DHT22;6382;48.614;8.880;2022-09-09T01:45:12;14.20;99.90
12634;DHT22;6382;48.614;8.880;2022-09-09T01:47:38;14.10;99.90
12634;DHT22;6382;48.614;8.880;2022-09-09T01:50:06;14.10;99.90
12634;DHT22;6382;48.614;8.880;2022-09-09T01:52:34;14.10;99.90
12634;DHT22;6382;48.614;8.880;2022-09-09T01:55:02;15.40;99.90
12634;DHT22;6382;48.614;8.880;2022-09-09T02:00:19;14.10;99.90
12634;DHT22;6382;48.614;8.880;2022-09-09T02:11:13;14.10;99.90
12634;DHT22;6382;48.614;8.880;2022-09-09T02:13:41;14.10;99.90
12634;DHT22;6382;48.614;8.880;2022-09-09T02:18:50;14.10;99.90
12634;DHT22;6382;48.614;8.880;2022-09-09T02:21:17;14.10;99.90
12634;DHT22;6382;48.614;8.880;2022-09-09T02:23:44;16.00;99.90
12634;DHT22;6382;48.614;8.880;2022-09-09T02:26:13;15.10;99.90
12634;DHT22;6382;48.614;8.880;2022-09-09T02:28:46;13.90;99.90
12634;DHT22;6382;48.614;8.880;2022-09-09T02:31:14;13.90;99.90
12634;DHT22;6382;48.614;8.880;2022-09-09T02:33:44;14.30;99.90
12634;DHT22;6382;48.614;8.880;2022-09-09T02:36:12;15.60;99.90
12634;DHT22;6382;48.614;8.880;2022-09-09T02:38:44;13.90;99.90
12634;DHT22;6382;48.614;8.880;2022-09-09T02:41:12;14.00;99.90
12634;DHT22;6382;48.614;8.880;2022-09-09T02:43:38;15.40;99.90
12634;DHT22;6382;48.614;8.880;2022-09-09T02:46:20;15.00;99.90
12634;DHT22;6382;48.614;8.880;2022-09-09T02:48:55;13.70;99.90
12634;DHT22;6382;48.614;8.880;2022-09-09T02:51:50;13.50;99.90
12634;DHT22;6382;48.614;8.880;2022-09-09T02:56:53;13.50;99.90
12634;DHT22;6382;48.614;8.880;2022-09-09T02:59:24;13.50;99.90
12634;DHT22;6382;48.614;8.880;2022-09-09T03:01:51;13.30;99.90
12634;DHT22;6382;48.614;8.880;2022-09-09T03:04:19;13.90;99.90
12634;DHT22;6382;48.614;8.880;2022-09-09T03:06:46;13.10;99.90
12634;DHT22;6382;48.614;8.880;2022-09-09T03:09:13;14.60;99.90
12634;DHT22;6382;48.614;8.880;2022-09-09T03:11:40;14.30;99.90
12634;DHT22;6382;48.614;8.880;2022-09-09T03:14:07;13.30;99.90
12634;DHT22;6382;48.614;8.880;2022-09-09T03:16:34;13.50;99.90
12634;DHT22;6382;48.614;8.880;2022-09-09T03:19:01;13.50;99.90
12634;DHT22;6382;48.614;8.880;2022-09-09T03:21:28;14.90;99.90
12634;DHT22;6382;48.614;8.880;2022-09-09T03:23:55;14.40;99.90
12634;DHT22;6382;48.614;8.880;2022-09-09T03:26:22;13.30;99.90
12634;DHT22;6382;48.614;8.880;2022-09-09T03:28:49;15.40;99.90
12634;DHT22;6382;48.614;8.880;2022-09-09T03:31:17;13.20;99.90
12634;DHT22;6382;48.614;8.880;2022-09-09T03:33:45;14.80;99.90
12634;DHT22;6382;48.614;8.880;2022-09-09T03:36:12;12.90;99.90
12634;DHT22;6382;48.614;8.880;2022-09-09T03:38:39;13.70;99.90
12634;DHT22;6382;48.614;8.880;2022-09-09T03:41:06;12.60;99.90
12634;DHT22;6382;48.614;8.880;2022-09-09T03:43:34;12.50;99.90
12634;DHT22;6382;48.614;8.880;2022-09-09T03:46:01;12.90;99.90
12634;DHT22;6382;48.614;8.880;2022-09-09T03:48:28;13.10;99.90
12634;DHT22;6382;48.614;8.880;2022-09-09T03:50:55;13.30;99.90
12634;DHT22;6382;48.614;8.880;2022-09-09T03:53:27;12.90;99.90
12634;DHT22;6382;48.614;8.880;2022-09-09T03:55:54;12.40;99.90
12634;DHT22;6382;48.614;8.880;2022-09-09T03:58:22;13.10;99.90
12634;DHT22;6382;48.614;8.880;2022-09-09T04:00:54;14.50;99.90
12634;DHT22;6382;48.614;8.880;2022-09-09T04:03:21;12.60;99.90
12634;DHT22;6382;48.614;8.880;2022-09-09T04:05:53;12.70;99.90
12634;DHT22;6382;48.614;8.880;2022-09-09T04:08:20;14.00;99.90
12634;DHT22;6382;48.614;8.880;2022-09-09T04:10:48;13.10;99.90
12634;DHT22;6382;48.614;8.880;2022-09-09T04:13:15;13.20;99.90
12634;DHT22;6382;48.614;8.880;2022-09-09T04:15:50;13.30;99.90
12634;DHT22;6382;48.614;8.880;2022-09-09T04:18:17;15.20;99.90
12634;DHT22;6382;48.614;8.880;2022-09-09T04:20:46;13.60;99.90
12634;DHT22;6382;48.614;8.880;2022-09-09T04:23:13;14.90;99.90
12634;DHT22;6382;48.614;8.880;2022-09-09T04:25:43;13.80;99.90
12634;DHT22;6382;48.614;8.880;2022-09-09T04:28:11;13.80;99.90
12634;DHT22;6382;48.614;8.880;2022-09-09T04:30:37;14.70;99.90
12634;DHT22;6382;48.614;8.880;2022-09-09T04:33:06;14.40;99.90
12634;DHT22;6382;48.614;8.880;2022-09-09T04:35:33;13.90;99.90
12634;DHT22;6382;48.614;8.880;2022-09-09T04:38:00;13.90;99.90
12634;DHT22;6382;48.614;8.880;2022-09-09T04:40:29;13.90;99.90
12634;DHT22;6382;48.614;8.880;2022-09-09T04:42:59;14.10;99.90
12634;DHT22;6382;48.614;8.880;2022-09-09T04:45:26;14.00;99.90
12634;DHT22;6382;48.614;8.880;2022-09-09T04:47:53;14.00;99.90
12634;DHT22;6382;48.614;8.880;2022-09-09T04:50:20;14.00;99.90
12634;DHT22;6382;48.614;8.880;2022-09-09T04:52:46;13.90;99.90
12634;DHT22;6382;48.614;8.880;2022-09-09T04:55:13;15.20;99.90
12634;DHT22;6382;48.614;8.880;2022-09-09T04:57:40;13.90;99.90
12634;DHT22;6382;48.614;8.880;2022-09-09T05:00:07;14.90;99.90
12634;DHT22;6382;48.614;8.880;2022-09-09T05:02:36;13.90;99.90
12634;DHT22;6382;48.614;8.880;2022-09-09T05:05:04;14.00;99.90
12634;DHT22;6382;48.614;8.880;2022-09-09T05:07:31;14.00;99.90
12634;DHT22;6382;48.614;8.880;2022-09-09T05:09:58;15.00;99.90
12634;DHT22;6382;48.614;8.880;2022-09-09T05:12:25;14.20;99.90
12634;DHT22;6382;48.614;8.880;2022-09-09T05:14:52;16.10;99.90
12634;DHT22;6382;48.614;8.880;2022-09-09T05:17:18;16.30;99.90
12634;DHT22;6382;48.614;8.880;2022-09-09T05:19:45;14.20;99.90
12634;DHT22;6382;48.614;8.880;2022-09-09T05:22:12;14.10;99.90
12634;DHT22;6382;48.614;8.880;2022-09-09T05:24:38;14.50;99.90
12634;DHT22;6382;48.614;8.880;2022-09-09T05:27:05;14.20;99.90
12634;DHT22;6382;48.614;8.880;2022-09-09T05:29:32;14.20;99.90
12634;DHT22;6382;48.614;8.880;2022-09-09T05:32:00;14.20;99.90
12634;DHT22;6382;48.614;8.880;2022-09-09T05:34:26;14.20;99.90
12634;DHT22;6382;48.614;8.880;2022-09-09T05:36:53;16.40;99.90
12634;DHT22;6382;48.614;8.880;2022-09-09T05:39:20;14.30;99.90
12634;DHT22;6382;48.614;8.880;2022-09-09T05:41:47;15.70;99.90
12634;DHT22;6382;48.614;8.880;2022-09-09T05:44:13;14.30;99.90
12634;DHT22;6382;48.614;8.880;2022-09-09T05:46:40;14.30;99.90
12634;DHT22;6382;48.614;8.880;2022-09-09T05:49:07;16.00;99.90
12634;DHT22;6382;48.614;8.880;2022-09-09T05:51:34;14.40;99.90
12634;DHT22;6382;48.614;8.880;2022-09-09T05:54:01;16.20;99.90
12634;DHT22;6382;48.614;8.880;2022-09-09T05:56:28;15.70;99.90
12634;DHT22;6382;48.614;8.880;2022-09-09T05:58:56;14.50;99.90
12634;DHT22;6382;48.614;8.880;2022-09-09T06:01:25;14.60;99.90
12634;DHT22;6382;48.614;8.880;2022-09-09T06:03:55;15.20;99.90
12634;DHT22;6382;48.614;8.880;2022-09-09T06:06:22;14.70;99.90
12634;DHT22;6382;48.614;8.880;2022-09-09T06:08:51;14.80;99.90
12634;DHT22;6382;48.614;8.880;2022-09-09T06:11:19;14.80;99.90
12634;DHT22;6382;48.614;8.880;2022-09-09T06:13:46;14.90;99.90
12634;DHT22;6382;48.614;8.880;2022-09-09T06:16:17;15.00;99.90
12634;DHT22;6382;48.614;8.880;2022-09-09T06:18:44;15.90;99.90
12634;DHT22;6382;48.614;8.880;2022-09-09T06:21:12;15.10;99.90
12634;DHT22;6382;48.614;8.880;2022-09-09T06:23:40;15.10;99.90
12634;DHT22;6382;48.614;8.880;2022-09-09T06:26:09;15.30;99.90
12634;DHT22;6382;48.614;8.880;2022-09-09T06:28:36;15.30;99.90
12634;DHT22;6382;48.614;8.880;2022-09-09T06:31:04;15.30;99.90
12634;DHT22;6382;48.614;8.880;2022-09-09T06:33:32;15.30;99.90
12634;DHT22;6382;48.614;8.880;2022-09-09T06:36:02;15.40;99.90
12634;DHT22;6382;48.614;8.880;2022-09-09T06:38:30;15.50;99.90
12634;DHT22;6382;48.614;8.880;2022-09-09T06:40:58;15.60;99.90
12634;DHT22;6382;48.614;8.880;2022-09-09T06:43:25;15.70;99.90
12634;DHT22;6382;48.614;8.880;2022-09-09T06:45:56;15.80;99.90
12634;DHT22;6382;48.614;8.880;2022-09-09T06:48:23;15.90;99.90
12634;DHT22;6382;48.614;8.880;2022-09-09T06:50:49;16.20;99.90
12634;DHT22;6382;48.614;8.880;2022-09-09T06:53:17;16.00;99.90
12634;DHT22;6382;48.614;8.880;2022-09-09T06:55:45;16.00;99.90
12634;DHT22;6382;48.614;8.880;2022-09-09T06:58:12;16.10;99.90
12634;DHT22;6382;48.614;8.880;2022-09-09T07:00:39;16.10;99.90
12634;DHT22;6382;48.614;8.880;2022-09-09T07:03:05;16.40;99.90
12634;DHT22;6382;48.614;8.880;2022-09-09T07:05:32;16.20;99.90
12634;DHT22;6382;48.614;8.880;2022-09-09T07:07:59;17.30;99.90
12634;DHT22;6382;48.614;8.880;2022-09-09T07:10:25;16.40;99.90
12634;DHT22;6382;48.614;8.880;2022-09-09T07:12:52;16.40;99.90
12634;DHT22;6382;48.614;8.880;2022-09-09T07:15:19;16.50;99.90
12634;DHT22;6382;48.614;8.880;2022-09-09T07:17:46;16.50;99.90
12634;DHT22;6382;48.614;8.880;2022-09-09T07:20:13;17.60;99.90
12634;DHT22;6382;48.614;8.880;2022-09-09T07:22:41;16.70;99.90
12634;DHT22;6382;48.614;8.880;2022-09-09T07:25:08;16.80;99.90
12634;DHT22;6382;48.614;8.880;2022-09-09T07:27:35;16.80;99.90
12634;DHT22;6382;48.614;8.880;2022-09-09T07:30:02;16.90;99.90
12634;DHT22;6382;48.614;8.880;2022-09-09T07:32:29;16.90;99.90
12634;DHT22;6382;48.614;8.880;2022-09-09T07:34:56;17.00;99.90
12634;DHT22;6382;48.614;8.880;2022-09-09T07:37:24;18.60;99.90
12634;DHT22;6382;48.614;8.880;2022-09-09T07:39:51;17.50;99.90
12634;DHT22;6382;48.614;8.880;2022-09-09T07:42:18;16.80;99.90
12634;DHT22;6382;48.614;8.880;2022-09-09T07:44:45;18.80;99.90
12634;DHT22;6382;48.614;8.880;2022-09-09T07:47:12;16.70;99.90
12634;DHT22;6382;48.614;8.880;2022-09-09T07:49:39;16.70;99.90
12634;DHT22;6382;48.614;8.880;2022-09-09T07:52:05;16.70;99.90
12634;DHT22;6382;48.614;8.880;2022-09-09T07:54:32;17.90;99.90
12634;DHT22;6382;48.614;8.880;2022-09-09T07:56:59;16.90;99.90
12634;DHT22;6382;48.614;8.880;2022-09-09T07:59:26;16.90;99.90
12634;DHT22;6382;48.614;8.880;2022-09-09T08:01:52;16.90;99.90
12634;DHT22;6382;48.614;8.880;2022-09-09T08:04:23;18.40;99.90
12634;DHT22;6382;48.614;8.880;2022-09-09T08:06:51;17.30;99.90
12634;DHT22;6382;48.614;8.880;2022-09-09T08:09:19;17.10;99.90
12634;DHT22;6382;48.614;8.880;2022-09-09T08:11:47;17.20;99.90
12634;DHT22;6382;48.614;8.880;2022-09-09T08:14:14;17.40;99.90
12634;DHT22;6382;48.614;8.880;2022-09-09T08:16:42;17.40;99.90
12634;DHT22;6382;48.614;8.880;2022-09-09T08:19:09;17.50;99.90
12634;DHT22;6382;48.614;8.880;2022-09-09T08:21:37;17.60;99.90
12634;DHT22;6382;48.614;8.880;2022-09-09T08:24:05;17.60;99.90
12634;DHT22;6382;48.614;8.880;2022-09-09T08:26:33;17.70;99.90
12634;DHT22;6382;48.614;8.880;2022-09-09T08:29:01;17.80;99.90
12634;DHT22;6382;48.614;8.880;2022-09-09T08:31:29;17.90;99.90
12634;DHT22;6382;48.614;8.880;2022-09-09T08:33:57;18.00;99.90
12634;DHT22;6382;48.614;8.880;2022-09-09T08:36:26;18.30;99.90
12634;DHT22;6382;48.614;8.880;2022-09-09T08:38:54;18.50;99.90
12634;DHT22;6382;48.614;8.880;2022-09-09T08:43:48;18.70;99.90
12634;DHT22;6382;48.614;8.880;2022-09-09T08:46:27;18.70;99.90
12634;DHT22;6382;48.614;8.880;2022-09-09T08:49:16;18.40;99.90
12634;DHT22;6382;48.614;8.880;2022-09-09T08:51:46;18.20;99.90
12634;DHT22;6382;48.614;8.880;2022-09-09T08:54:14;18.20;99.90
12634;DHT22;6382;48.614;8.880;2022-09-09T08:57:00;17.70;99.90
12634;DHT22;6382;48.614;8.880;2022-09-09T08:59:27;18.80;99.90
12634;DHT22;6382;48.614;8.880;2022-09-09T09:13:08;17.20;99.90
12634;DHT22;6382;48.614;8.880;2022-09-09T09:15:39;20.30;99.90
12634;DHT22;6382;48.614;8.880;2022-09-09T09:18:07;17.10;99.90
12634;DHT22;6382;48.614;8.880;2022-09-09T09:20:59;18.50;99.90
12634;DHT22;6382;48.614;8.880;2022-09-09T09:23:31;17.00;99.90
12634;DHT22;6382;48.614;8.880;2022-09-09T09:26:01;17.00;99.90
12634;DHT22;6382;48.614;8.880;2022-09-09T09:28:29;17.20;99.90
12634;DHT22;6382;48.614;8.880;2022-09-09T09:30:58;17.20;99.90
12634;DHT22;6382;48.614;8.880;2022-09-09T09:34:01;20.10;99.90
12634;DHT22;6382;48.614;8.880;2022-09-09T09:36:23;17.40;99.90
12634;DHT22;6382;48.614;8.880;2022-09-09T09:39:00;18.20;99.90
12634;DHT22;6382;48.614;8.880;2022-09-09T09:41:47;18.00;99.90
12634;DHT22;6382;48.614;8.880;2022-09-09T09:46:47;17.50;99.90
12634;DHT22;6382;48.614;8.880;2022-09-09T09:49:14;17.50;99.90
12634;DHT22;6382;48.614;8.880;2022-09-09T09:51:40;17.60;99.90
12634;DHT22;6382;48.614;8.880;2022-09-09T09:56:35;17.80;99.90
12634;DHT22;6382;48.614;8.880;2022-09-09T09:59:02;20.70;99.90
12634;DHT22;6382;48.614;8.880;2022-09-09T10:01:43;17.90;99.90
12634;DHT22;6382;48.614;8.880;2022-09-09T10:06:40;18.00;99.90
12634;DHT22;6382;48.614;8.880;2022-09-09T10:09:20;20.70;99.90
12634;DHT22;6382;48.614;8.880;2022-09-09T10:11:55;18.40;99.90
12634;DHT22;6382;48.614;8.880;2022-09-09T10:17:04;18.40;99.90
12634;DHT22;6382;48.614;8.880;2022-09-09T10:19:36;18.50;99.90
12634;DHT22;6382;48.614;8.880;2022-09-09T10:33:16;18.60;99.90
12634;DHT22;6382;48.614;8.880;2022-09-09T10:38:40;18.50;99.90
12634;DHT22;6382;48.614;8.880;2022-09-09T10:46:07;20.00;99.90
12634;DHT22;6382;48.614;8.880;2022-09-09T10:48:40;20.60;99.90
12634;DHT22;6382;48.614;8.880;2022-09-09T10:51:15;18.90;99.90
12634;DHT22;6382;48.614;8.880;2022-09-09T10:53:57;19.00;99.90
12634;DHT22;6382;48.614;8.880;2022-09-09T10:56:29;19.80;99.90
12634;DHT22;6382;48.614;8.880;2022-09-09T10:59:01;20.60;99.90
12634;DHT22;6382;48.614;8.880;2022-09-09T11:01:34;18.50;99.90
12634;DHT22;6382;48.614;8.880;2022-09-09T11:04:26;18.80;99.90
12634;DHT22;6382;48.614;8.880;2022-09-09T11:06:52;19.00;99.90
12634;DHT22;6382;48.614;8.880;2022-09-09T11:09:27;17.50;99.90
12634;DHT22;6382;48.614;8.880;2022-09-09T11:11:56;17.10;99.90
12634;DHT22;6382;48.614;8.880;2022-09-09T11:20:00;17.70;99.90
12634;DHT22;6382;48.614;8.880;2022-09-09T11:22:26;16.60;99.90
12634;DHT22;6382;48.614;8.880;2022-09-09T11:27:36;16.50;99.90
12634;DHT22;6382;48.614;8.880;2022-09-09T11:32:54;16.70;99.90
12634;DHT22;6382;48.614;8.880;2022-09-09T11:38:09;17.00;99.90
12634;DHT22;6382;48.614;8.880;2022-09-09T11:40:38;17.00;99.90
12634;DHT22;6382;48.614;8.880;2022-09-09T11:43:13;18.80;99.90
12634;DHT22;6382;48.614;8.880;2022-09-09T11:45:41;17.20;99.90
12634;DHT22;6382;48.614;8.880;2022-09-09T11:51:25;17.50;99.90
12634;DHT22;6382;48.614;8.880;2022-09-09T11:53:52;17.60;99.90
12634;DHT22;6382;48.614;8.880;2022-09-09T12:01:28;17.80;99.90
12634;DHT22;6382;48.614;8.880;2022-09-09T12:04:09;17.90;99.90
12634;DHT22;6382;48.614;8.880;2022-09-09T12:06:58;18.20;99.90
12634;DHT22;6382;48.614;8.880;2022-09-09T12:11:52;18.60;99.90
12634;DHT22;6382;48.614;8.880;2022-09-09T12:14:35;18.70;99.90
12634;DHT22;6382;48.614;8.880;2022-09-09T12:17:21;18.50;99.90
12634;DHT22;6382;48.614;8.880;2022-09-09T12:19:59;18.50;99.90
12634;DHT22;6382;48.614;8.880;2022-09-09T12:25:06;20.80;99.90
12634;DHT22;6382;48.614;8.880;2022-09-09T12:27:42;18.50;99.90
12634;DHT22;6382;48.614;8.880;2022-09-09T12:30:14;18.60;99.90
12634;DHT22;6382;48.614;8.880;2022-09-09T12:32:41;19.50;99.90
12634;DHT22;6382;48.614;8.880;2022-09-09T12:40:21;18.60;99.90
12634;DHT22;6382;48.614;8.880;2022-09-09T12:42:48;18.60;99.90
12634;DHT22;6382;48.614;8.880;2022-09-09T12:45:23;18.70;99.90
12634;DHT22;6382;48.614;8.880;2022-09-09T12:47:54;18.70;99.90
12634;DHT22;6382;48.614;8.880;2022-09-09T12:50:23;18.80;99.90
12634;DHT22;6382;48.614;8.880;2022-09-09T12:52:53;18.90;99.90
12634;DHT22;6382;48.614;8.880;2022-09-09T12:55:21;20.40;99.90
12634;DHT22;6382;48.614;8.880;2022-09-09T12:57:51;22.50;99.90
12634;DHT22;6382;48.614;8.880;2022-09-09T13:00:22;19.40;99.90
12634;DHT22;6382;48.614;8.880;2022-09-09T13:02:53;19.50;99.90
12634;DHT22;6382;48.614;8.880;2022-09-09T13:05:22;19.60;99.90
12634;DHT22;6382;48.614;8.880;2022-09-09T13:07:49;19.50;99.90
12634;DHT22;6382;48.614;8.880;2022-09-09T13:10:21;19.80;99.90
12634;DHT22;6382;48.614;8.880;2022-09-09T13:13:02;19.50;99.90
12634;DHT22;6382;48.614;8.880;2022-09-09T13:15:29;19.20;99.90
12634;DHT22;6382;48.614;8.880;2022-09-09T13:17:57;19.30;99.90
12634;DHT22;6382;48.614;8.880;2022-09-09T13:20:25;19.20;99.90
12634;DHT22;6382;48.614;8.880;2022-09-09T13:22:52;19.20;99.90
12634;DHT22;6382;48.614;8.880;2022-09-09T13:25:24;19.90;99.90
12634;DHT22;6382;48.614;8.880;2022-09-09T13:30:20;20.30;99.90
12634;DHT22;6382;48.614;8.880;2022-09-09T13:33:02;19.30;99.90
12634;DHT22;6382;48.614;8.880;2022-09-09T13:35:30;19.40;99.90
12634;DHT22;6382;48.614;8.880;2022-09-09T13:37:58;19.40;99.90
12634;DHT22;6382;48.614;8.880;2022-09-09T13:40:25;19.60;99.90
12634;DHT22;6382;48.614;8.880;2022-09-09T13:42:52;19.70;99.90
12634;DHT22;6382;48.614;8.880;2022-09-09T13:45:22;19.70;99.90
12634;DHT22;6382;48.614;8.880;2022-09-09T13:47:49;19.80;99.90
12634;DHT22;6382;48.614;8.880;2022-09-09T13:50:25;22.30;99.90
12634;DHT22;6382;48.614;8.880;2022-09-09T13:52:56;19.90;99.90
12634;DHT22;6382;48.614;8.880;2022-09-09T13:55:25;19.90;99.90
12634;DHT22;6382;48.614;8.880;2022-09-09T13:57:53;19.90;99.90
12634;DHT22;6382;48.614;8.880;2022-09-09T14:00:20;21.80;99.90
12634;DHT22;6382;48.614;8.880;2022-09-09T14:02:48;20.70;99.90
12634;DHT22;6382;48.614;8.880;2022-09-09T14:05:15;20.80;99.90
12634;DHT22;6382;48.614;8.880;2022-09-09T14:07:43;20.80;99.90
12634;DHT22;6382;48.614;8.880;2022-09-09T14:10:10;22.90;99.90
12634;DHT22;6382;48.614;8.880;2022-09-09T14:12:37;21.40;99.90
12634;DHT22;6382;48.614;8.880;2022-09-09T14:15:05;20.00;99.90
12634;DHT22;6382;48.614;8.880;2022-09-09T14:17:32;20.10;99.90
12634;DHT22;6382;48.614;8.880;2022-09-09T14:19:58;22.70;99.90
12634;DHT22;6382;48.614;8.880;2022-09-09T14:22:25;22.40;99.90
12634;DHT22;6382;48.614;8.880;2022-09-09T14:24:52;21.30;99.90
12634;DHT22;6382;48.614;8.880;2022-09-09T14:27:19;20.00;99.90
12634;DHT22;6382;48.614;8.880;2022-09-09T14:29:46;20.00;99.90
12634;DHT22;6382;48.614;8.880;2022-09-09T14:32:12;21.20;99.90
12634;DHT22;6382;48.614;8.880;2022-09-09T14:34:39;21.30;99.90
12634;DHT22;6382;48.614;8.880;2022-09-09T14:37:07;20.00;99.90
12634;DHT22;6382;48.614;8.880;2022-09-09T14:39:33;21.00;99.90
12634;DHT22;6382;48.614;8.880;2022-09-09T14:42:00;22.10;99.90
12634;DHT22;6382;48.614;8.880;2022-09-09T14:44:27;20.50;99.90
12634;DHT22;6382;48.614;8.880;2022-09-09T14:46:54;19.90;99.90
12634;DHT22;6382;48.614;8.880;2022-09-09T14:49:21;20.00;99.90
12634;DHT22;6382;48.614;8.880;2022-09-09T14:51:48;20.10;99.90
12634;DHT22;6382;48.614;8.880;2022-09-09T14:54:14;20.30;99.90
12634;DHT22;6382;48.614;8.880;2022-09-09T14:56:41;20.40;99.90
12634;DHT22;6382;48.614;8.880;2022-09-09T14:59:08;20.50;99.90
12634;DHT22;6382;48.614;8.880;2022-09-09T15:01:35;21.90;99.90
12634;DHT22;6382;48.614;8.880;2022-09-09T15:04:03;22.10;99.90
12634;DHT22;6382;48.614;8.880;2022-09-09T15:06:31;20.70;99.90
12634;DHT22;6382;48.614;8.880;2022-09-09T15:08:59;20.60;99.90
12634;DHT22;6382;48.614;8.880;2022-09-09T15:11:27;22.70;99.90
12634;DHT22;6382;48.614;8.880;2022-09-09T15:13:54;21.00;99.90
12634;DHT22;6382;48.614;8.880;2022-09-09T15:16:22;22.20;99.90
12634;DHT22;6382;48.614;8.880;2022-09-09T15:18:50;23.00;99.90
12634;DHT22;6382;48.614;8.880;2022-09-09T15:21:18;20.40;99.90
12634;DHT22;6382;48.614;8.880;2022-09-09T15:23:48;20.40;99.90
12634;DHT22;6382;48.614;8.880;2022-09-09T15:26:15;22.90;99.90
12634;DHT22;6382;48.614;8.880;2022-09-09T15:28:42;21.40;99.90
12634;DHT22;6382;48.614;8.880;2022-09-09T15:31:17;20.10;99.90
12634;DHT22;6382;48.614;8.880;2022-09-09T15:33:51;19.90;99.90
12634;DHT22;6382;48.614;8.880;2022-09-09T15:36:22;19.70;99.90
12634;DHT22;6382;48.614;8.880;2022-09-09T15:38:49;19.50;99.90
12634;DHT22;6382;48.614;8.880;2022-09-09T15:41:16;22.20;99.90
12634;DHT22;6382;48.614;8.880;2022-09-09T15:43:46;19.80;99.90
12634;DHT22;6382;48.614;8.880;2022-09-09T15:48:44;19.00;99.90
12634;DHT22;6382;48.614;8.880;2022-09-09T15:51:14;20.00;99.90
12634;DHT22;6382;48.614;8.880;2022-09-09T15:54:01;19.90;99.90
12634;DHT22;6382;48.614;8.880;2022-09-09T15:56:28;18.90;99.90
12634;DHT22;6382;48.614;8.880;2022-09-09T15:58:57;19.00;99.90
12634;DHT22;6382;48.614;8.880;2022-09-09T16:01:24;18.80;99.90
12634;DHT22;6382;48.614;8.880;2022-09-09T16:03:51;18.80;99.90
12634;DHT22;6382;48.614;8.880;2022-09-09T16:06:19;18.70;99.90
12634;DHT22;6382;48.614;8.880;2022-09-09T16:08:48;19.40;99.90
12634;DHT22;6382;48.614;8.880;2022-09-09T16:11:20;21.20;99.90
12634;DHT22;6382;48.614;8.880;2022-09-09T16:13:47;18.80;99.90
12634;DHT22;6382;48.614;8.880;2022-09-09T16:16:17;18.70;99.90
12634;DHT22;6382;48.614;8.880;2022-09-09T16:18:46;21.50;99.90
12634;DHT22;6382;48.614;8.880;2022-09-09T16:21:15;18.20;99.90
12634;DHT22;6382;48.614;8.880;2022-09-09T16:23:43;17.90;99.90
12634;DHT22;6382;48.614;8.880;2022-09-09T16:26:10;17.80;99.90
12634;DHT22;6382;48.614;8.880;2022-09-09T16:28:38;17.60;99.90
12634;DHT22;6382;48.614;8.880;2022-09-09T16:31:06;17.60;99.90
12634;DHT22;6382;48.614;8.880;2022-09-09T16:33:33;17.60;99.90
12634;DHT22;6382;48.614;8.880;2022-09-09T16:36:06;17.70;99.90
12634;DHT22;6382;48.614;8.880;2022-09-09T16:38:33;17.80;99.90
12634;DHT22;6382;48.614;8.880;2022-09-09T16:41:05;21.10;99.90
12634;DHT22;6382;48.614;8.880;2022-09-09T16:43:32;18.00;99.90
12634;DHT22;6382;48.614;8.880;2022-09-09T16:45:59;18.00;99.90
12634;DHT22;6382;48.614;8.880;2022-09-09T16:48:32;21.00;99.90
12634;DHT22;6382;48.614;8.880;2022-09-09T16:51:04;18.00;99.90
12634;DHT22;6382;48.614;8.880;2022-09-09T16:53:32;17.90;99.90
12634;DHT22;6382;48.614;8.880;2022-09-09T16:56:04;17.90;99.90
12634;DHT22;6382;48.614;8.880;2022-09-09T16:58:31;17.80;99.90
12634;DHT22;6382;48.614;8.880;2022-09-09T17:00:58;18.60;99.90
12634;DHT22;6382;48.614;8.880;2022-09-09T17:03:25;19.40;99.90
12634;DHT22;6382;48.614;8.880;2022-09-09T17:05:52;20.60;99.90
12634;DHT22;6382;48.614;8.880;2022-09-09T17:08:19;17.60;99.90
12634;DHT22;6382;48.614;8.880;2022-09-09T17:10:45;17.70;99.90
12634;DHT22;6382;48.614;8.880;2022-09-09T17:13:13;17.60;99.90
12634;DHT22;6382;48.614;8.880;2022-09-09T17:15:40;17.50;99.90
12634;DHT22;6382;48.614;8.880;2022-09-09T17:18:09;17.40;99.90
12634;DHT22;6382;48.614;8.880;2022-09-09T17:20:37;17.30;99.90
12634;DHT22;6382;48.614;8.880;2022-09-09T17:23:12;17.30;99.90
12634;DHT22;6382;48.614;8.880;2022-09-09T17:25:42;17.10;99.90
12634;DHT22;6382;48.614;8.880;2022-09-09T17:28:09;17.00;99.90
12634;DHT22;6382;48.614;8.880;2022-09-09T17:30:36;16.80;99.90
12634;DHT22;6382;48.614;8.880;2022-09-09T17:33:03;16.80;99.90
12634;DHT22;6382;48.614;8.880;2022-09-09T17:35:30;16.70;99.90
12634;DHT22;6382;48.614;8.880;2022-09-09T17:37:57;16.60;99.90
12634;DHT22;6382;48.614;8.880;2022-09-09T17:40:24;16.60;99.90
12634;DHT22;6382;48.614;8.880;2022-09-09T17:42:51;16.50;99.90
12634;DHT22;6382;48.614;8.880;2022-09-09T17:45:17;17.90;99.90
12634;DHT22;6382;48.614;8.880;2022-09-09T17:47:45;16.50;99.90
12634;DHT22;6382;48.614;8.880;2022-09-09T17:50:12;17.30;99.90
12634;DHT22;6382;48.614;8.880;2022-09-09T17:52:39;18.00;99.90
12634;DHT22;6382;48.614;8.880;2022-09-09T17:55:07;16.50;99.90
12634;DHT22;6382;48.614;8.880;2022-09-09T17:57:35;16.40;99.90
12634;DHT22;6382;48.614;8.880;2022-09-09T18:00:04;16.50;99.90
12634;DHT22;6382;48.614;8.880;2022-09-09T18:02:31;16.40;99.90
12634;DHT22;6382;48.614;8.880;2022-09-09T18:04:58;16.40;99.90
12634;DHT22;6382;48.614;8.880;2022-09-09T18:07:25;16.30;99.90
12634;DHT22;6382;48.614;8.880;2022-09-09T18:09:52;16.40;99.90